Terminal Aerodrome Forecast
Issued by NWS Paducah, KY

Home | Current Version | Previous Version | Text Only | Print | Product List | Glossary On
Versions: 1 2 3 4 5 6 7 8 9 10 11 12 13 14 15
515
FTUS43 KPAH 231720
TAFEVV
TAF
KEVV 231720Z 2318/2418 14007KT P6SM SCT050 BKN150
      TEMPO 2322/2401 -SHRA BKN035
     FM240100 17003KT P6SM SCT060 BKN250 PROB30 2409/2415 -SHRA=

USA.gov is the U.S. government's official web portal to all federal, state and local government web resources and services.